sensor_id;sensor_type;location;lat;lon;timestamp;temperature;humidity
27072;DHT22;14613;46.308;25.288;2023-05-02T00:00:30;9.80;66.20
27072;DHT22;14613;46.308;25.288;2023-05-02T00:02:56;9.70;66.20
27072;DHT22;14613;46.308;25.288;2023-05-02T00:05:22;9.70;66.20
27072;DHT22;14613;46.308;25.288;2023-05-02T00:07:50;9.70;66.20
27072;DHT22;14613;46.308;25.288;2023-05-02T00:10:16;9.70;66.30
27072;DHT22;14613;46.308;25.288;2023-05-02T00:12:42;9.60;66.30
27072;DHT22;14613;46.308;25.288;2023-05-02T00:15:08;9.60;66.30
27072;DHT22;14613;46.308;25.288;2023-05-02T00:17:35;9.60;66.40
27072;DHT22;14613;46.308;25.288;2023-05-02T00:20:01;9.50;66.50
27072;DHT22;14613;46.308;25.288;2023-05-02T00:22:30;9.50;66.50
27072;DHT22;14613;46.308;25.288;2023-05-02T00:24:57;9.50;66.60
27072;DHT22;14613;46.308;25.288;2023-05-02T00:27:23;9.50;66.60
27072;DHT22;14613;46.308;25.288;2023-05-02T00:29:49;9.40;66.70
27072;DHT22;14613;46.308;25.288;2023-05-02T00:32:17;9.40;66.80
27072;DHT22;14613;46.308;25.288;2023-05-02T00:34:43;9.40;66.70
27072;DHT22;14613;46.308;25.288;2023-05-02T00:37:09;9.40;66.80
27072;DHT22;14613;46.308;25.288;2023-05-02T00:39:35;9.40;66.90
27072;DHT22;14613;46.308;25.288;2023-05-02T00:42:01;9.30;66.90
27072;DHT22;14613;46.308;25.288;2023-05-02T00:44:27;9.30;66.90
27072;DHT22;14613;46.308;25.288;2023-05-02T00:46:54;9.20;67.00
27072;DHT22;14613;46.308;25.288;2023-05-02T00:49:20;9.20;67.10
27072;DHT22;14613;46.308;25.288;2023-05-02T00:51:46;9.20;67.20
27072;DHT22;14613;46.308;25.288;2023-05-02T00:54:13;9.10;67.20
27072;DHT22;14613;46.308;25.288;2023-05-02T00:56:39;9.10;67.30
27072;DHT22;14613;46.308;25.288;2023-05-02T00:59:07;9.10;67.40
27072;DHT22;14613;46.308;25.288;2023-05-02T01:07:13;8.90;67.70
27072;DHT22;14613;46.308;25.288;2023-05-02T01:15:06;8.90;68.00
27072;DHT22;14613;46.308;25.288;2023-05-02T01:17:35;8.90;68.00
27072;DHT22;14613;46.308;25.288;2023-05-02T01:20:07;8.90;68.00
27072;DHT22;14613;46.308;25.288;2023-05-02T01:22:37;8.80;68.00
27072;DHT22;14613;46.308;25.288;2023-05-02T01:28:04;8.80;68.10
27072;DHT22;14613;46.308;25.288;2023-05-02T01:30:34;8.80;68.10
27072;DHT22;14613;46.308;25.288;2023-05-02T01:33:02;8.80;68.20
27072;DHT22;14613;46.308;25.288;2023-05-02T01:35:31;8.70;68.30
27072;DHT22;14613;46.308;25.288;2023-05-02T01:37:58;8.70;68.30
27072;DHT22;14613;46.308;25.288;2023-05-02T01:40:25;8.70;68.30
27072;DHT22;14613;46.308;25.288;2023-05-02T01:42:52;8.70;68.30
27072;DHT22;14613;46.308;25.288;2023-05-02T01:45:21;8.80;68.30
27072;DHT22;14613;46.308;25.288;2023-05-02T01:47:47;8.80;68.30
27072;DHT22;14613;46.308;25.288;2023-05-02T01:50:18;8.70;68.30
27072;DHT22;14613;46.308;25.288;2023-05-02T01:52:46;8.70;68.30
27072;DHT22;14613;46.308;25.288;2023-05-02T01:55:14;8.70;68.40
27072;DHT22;14613;46.308;25.288;2023-05-02T01:57:43;8.70;68.40
27072;DHT22;14613;46.308;25.288;2023-05-02T02:00:11;8.70;68.40
27072;DHT22;14613;46.308;25.288;2023-05-02T02:02:40;8.70;68.40
27072;DHT22;14613;46.308;25.288;2023-05-02T02:05:08;8.60;68.40
27072;DHT22;14613;46.308;25.288;2023-05-02T02:07:35;8.60;68.60
27072;DHT22;14613;46.308;25.288;2023-05-02T02:10:01;8.50;68.60
27072;DHT22;14613;46.308;25.288;2023-05-02T02:12:39;8.50;68.70
27072;DHT22;14613;46.308;25.288;2023-05-02T02:15:12;8.50;68.80
27072;DHT22;14613;46.308;25.288;2023-05-02T02:17:52;8.40;68.80
27072;DHT22;14613;46.308;25.288;2023-05-02T02:20:21;8.50;68.90
27072;DHT22;14613;46.308;25.288;2023-05-02T02:22:47;8.40;68.80
27072;DHT22;14613;46.308;25.288;2023-05-02T02:25:15;8.40;68.90
27072;DHT22;14613;46.308;25.288;2023-05-02T02:27:42;8.40;69.00
27072;DHT22;14613;46.308;25.288;2023-05-02T02:30:09;8.40;69.00
27072;DHT22;14613;46.308;25.288;2023-05-02T02:32:35;8.30;69.00
27072;DHT22;14613;46.308;25.288;2023-05-02T02:35:01;8.30;69.00
27072;DHT22;14613;46.308;25.288;2023-05-02T02:37:43;8.30;69.00
27072;DHT22;14613;46.308;25.288;2023-05-02T02:40:45;8.30;69.10
27072;DHT22;14613;46.308;25.288;2023-05-02T02:43:19;8.30;69.10
27072;DHT22;14613;46.308;25.288;2023-05-02T02:51:10;8.30;69.00
27072;DHT22;14613;46.308;25.288;2023-05-02T02:56:14;8.30;69.10
27072;DHT22;14613;46.308;25.288;2023-05-02T02:59:03;8.20;69.10
27072;DHT22;14613;46.308;25.288;2023-05-02T03:01:31;8.20;69.10
27072;DHT22;14613;46.308;25.288;2023-05-02T03:03:57;8.20;69.30
27072;DHT22;14613;46.308;25.288;2023-05-02T03:06:24;8.20;69.30
27072;DHT22;14613;46.308;25.288;2023-05-02T03:08:50;8.20;69.40
27072;DHT22;14613;46.308;25.288;2023-05-02T03:11:16;8.10;69.40
27072;DHT22;14613;46.308;25.288;2023-05-02T03:13:42;8.10;69.60
27072;DHT22;14613;46.308;25.288;2023-05-02T03:16:38;8.00;69.70
27072;DHT22;14613;46.308;25.288;2023-05-02T03:19:05;8.00;69.70
27072;DHT22;14613;46.308;25.288;2023-05-02T03:21:32;8.00;69.80
27072;DHT22;14613;46.308;25.288;2023-05-02T03:23:59;8.00;69.90
27072;DHT22;14613;46.308;25.288;2023-05-02T03:26:25;8.00;70.10
27072;DHT22;14613;46.308;25.288;2023-05-02T03:28:52;8.00;70.50
27072;DHT22;14613;46.308;25.288;2023-05-02T03:31:18;8.10;71.00
27072;DHT22;14613;46.308;25.288;2023-05-02T03:33:43;8.30;71.40
27072;DHT22;14613;46.308;25.288;2023-05-02T03:36:09;8.60;71.70
27072;DHT22;14613;46.308;25.288;2023-05-02T03:38:38;8.90;71.70
27072;DHT22;14613;46.308;25.288;2023-05-02T03:41:04;9.20;71.50
27072;DHT22;14613;46.308;25.288;2023-05-02T03:43:30;9.50;71.30
27072;DHT22;14613;46.308;25.288;2023-05-02T03:45:57;9.90;71.30
27072;DHT22;14613;46.308;25.288;2023-05-02T03:48:23;10.30;71.20
27072;DHT22;14613;46.308;25.288;2023-05-02T03:50:49;10.70;71.00
27072;DHT22;14613;46.308;25.288;2023-05-02T03:53:15;11.20;70.80
27072;DHT22;14613;46.308;25.288;2023-05-02T03:55:42;11.60;70.50
27072;DHT22;14613;46.308;25.288;2023-05-02T03:58:09;12.00;69.90
27072;DHT22;14613;46.308;25.288;2023-05-02T04:00:35;12.50;69.50
27072;DHT22;14613;46.308;25.288;2023-05-02T04:03:03;12.90;68.80
27072;DHT22;14613;46.308;25.288;2023-05-02T04:05:29;13.40;68.40
27072;DHT22;14613;46.308;25.288;2023-05-02T04:07:55;13.80;67.70
27072;DHT22;14613;46.308;25.288;2023-05-02T04:10:21;14.20;67.30
27072;DHT22;14613;46.308;25.288;2023-05-02T04:12:47;14.60;66.70
27072;DHT22;14613;46.308;25.288;2023-05-02T04:15:13;15.00;66.10
27072;DHT22;14613;46.308;25.288;2023-05-02T04:17:39;15.40;65.40
27072;DHT22;14613;46.308;25.288;2023-05-02T04:20:06;15.80;64.90
27072;DHT22;14613;46.308;25.288;2023-05-02T04:22:32;16.20;64.30
27072;DHT22;14613;46.308;25.288;2023-05-02T04:24:58;16.50;63.60
27072;DHT22;14613;46.308;25.288;2023-05-02T04:27:23;16.80;63.10
27072;DHT22;14613;46.308;25.288;2023-05-02T04:29:50;17.20;62.50
27072;DHT22;14613;46.308;25.288;2023-05-02T04:32:16;17.40;61.90
27072;DHT22;14613;46.308;25.288;2023-05-02T04:34:42;17.80;61.40
27072;DHT22;14613;46.308;25.288;2023-05-02T04:37:08;18.10;60.60
27072;DHT22;14613;46.308;25.288;2023-05-02T04:39:34;18.30;60.00
27072;DHT22;14613;46.308;25.288;2023-05-02T04:41:59;18.50;59.60
27072;DHT22;14613;46.308;25.288;2023-05-02T04:44:26;18.70;59.40
27072;DHT22;14613;46.308;25.288;2023-05-02T04:46:52;18.90;59.30
27072;DHT22;14613;46.308;25.288;2023-05-02T04:49:18;19.20;59.00
27072;DHT22;14613;46.308;25.288;2023-05-02T04:51:44;19.50;58.60
27072;DHT22;14613;46.308;25.288;2023-05-02T04:54:11;19.70;58.10
27072;DHT22;14613;46.308;25.288;2023-05-02T04:56:37;19.90;57.80
27072;DHT22;14613;46.308;25.288;2023-05-02T04:59:03;20.10;57.50
27072;DHT22;14613;46.308;25.288;2023-05-02T05:01:29;20.30;57.20
27072;DHT22;14613;46.308;25.288;2023-05-02T05:03:55;20.50;56.90
27072;DHT22;14613;46.308;25.288;2023-05-02T05:06:21;20.60;56.60
27072;DHT22;14613;46.308;25.288;2023-05-02T05:08:47;20.80;56.30
27072;DHT22;14613;46.308;25.288;2023-05-02T05:11:13;20.90;55.80
27072;DHT22;14613;46.308;25.288;2023-05-02T05:13:40;21.00;55.50
27072;DHT22;14613;46.308;25.288;2023-05-02T05:16:07;20.90;54.50
27072;DHT22;14613;46.308;25.288;2023-05-02T05:18:33;20.80;54.70
27072;DHT22;14613;46.308;25.288;2023-05-02T05:21:06;20.90;54.90
27072;DHT22;14613;46.308;25.288;2023-05-02T05:23:33;21.00;54.90
27072;DHT22;14613;46.308;25.288;2023-05-02T05:26:08;21.30;54.80
27072;DHT22;14613;46.308;25.288;2023-05-02T05:28:34;21.50;54.20
27072;DHT22;14613;46.308;25.288;2023-05-02T05:31:08;21.70;53.90
27072;DHT22;14613;46.308;25.288;2023-05-02T05:33:34;21.90;53.60
27072;DHT22;14613;46.308;25.288;2023-05-02T05:36:07;22.20;53.30
27072;DHT22;14613;46.308;25.288;2023-05-02T05:38:34;22.30;52.70
27072;DHT22;14613;46.308;25.288;2023-05-02T05:41:00;22.60;52.60
27072;DHT22;14613;46.308;25.288;2023-05-02T05:43:27;22.80;52.30
27072;DHT22;14613;46.308;25.288;2023-05-02T05:45:53;23.00;52.10
27072;DHT22;14613;46.308;25.288;2023-05-02T05:48:19;23.30;51.40
27072;DHT22;14613;46.308;25.288;2023-05-02T05:50:45;23.40;50.80
27072;DHT22;14613;46.308;25.288;2023-05-02T05:53:12;23.50;50.70
27072;DHT22;14613;46.308;25.288;2023-05-02T05:55:38;23.80;50.50
27072;DHT22;14613;46.308;25.288;2023-05-02T05:58:04;24.00;50.30
27072;DHT22;14613;46.308;25.288;2023-05-02T06:00:33;24.30;50.10
27072;DHT22;14613;46.308;25.288;2023-05-02T06:03:00;24.60;49.70
27072;DHT22;14613;46.308;25.288;2023-05-02T06:05:26;25.00;49.20
27072;DHT22;14613;46.308;25.288;2023-05-02T06:07:51;25.30;48.60
27072;DHT22;14613;46.308;25.288;2023-05-02T06:10:17;25.60;48.50
27072;DHT22;14613;46.308;25.288;2023-05-02T06:12:43;25.80;48.10
27072;DHT22;14613;46.308;25.288;2023-05-02T06:15:09;26.10;47.90
27072;DHT22;14613;46.308;25.288;2023-05-02T06:17:35;26.30;47.10
27072;DHT22;14613;46.308;25.288;2023-05-02T06:20:04;26.40;46.80
27072;DHT22;14613;46.308;25.288;2023-05-02T06:22:30;26.60;46.70
27072;DHT22;14613;46.308;25.288;2023-05-02T06:24:56;26.90;46.50
27072;DHT22;14613;46.308;25.288;2023-05-02T06:27:22;27.10;46.30
27072;DHT22;14613;46.308;25.288;2023-05-02T06:29:50;27.30;45.90
27072;DHT22;14613;46.308;25.288;2023-05-02T06:32:17;27.50;45.40
27072;DHT22;14613;46.308;25.288;2023-05-02T06:34:43;27.60;44.90
27072;DHT22;14613;46.308;25.288;2023-05-02T06:37:09;27.60;44.40
27072;DHT22;14613;46.308;25.288;2023-05-02T06:39:35;27.50;44.50
27072;DHT22;14613;46.308;25.288;2023-05-02T06:42:01;27.30;43.30
27072;DHT22;14613;46.308;25.288;2023-05-02T06:44:27;27.00;42.60
27072;DHT22;14613;46.308;25.288;2023-05-02T06:46:53;26.40;42.00
27072;DHT22;14613;46.308;25.288;2023-05-02T06:49:21;26.00;42.70
27072;DHT22;14613;46.308;25.288;2023-05-02T06:51:46;25.90;43.30
27072;DHT22;14613;46.308;25.288;2023-05-02T06:54:12;26.00;43.20
27072;DHT22;14613;46.308;25.288;2023-05-02T06:56:40;26.00;42.90
27072;DHT22;14613;46.308;25.288;2023-05-02T06:59:06;26.00;42.50
27072;DHT22;14613;46.308;25.288;2023-05-02T07:01:32;26.00;42.40
27072;DHT22;14613;46.308;25.288;2023-05-02T07:03:59;26.00;42.10
27072;DHT22;14613;46.308;25.288;2023-05-02T07:06:25;25.90;41.50
27072;DHT22;14613;46.308;25.288;2023-05-02T07:08:51;25.80;41.60
27072;DHT22;14613;46.308;25.288;2023-05-02T07:11:17;25.70;41.60
27072;DHT22;14613;46.308;25.288;2023-05-02T07:13:43;25.70;41.90
27072;DHT22;14613;46.308;25.288;2023-05-02T07:16:10;25.70;41.70
27072;DHT22;14613;46.308;25.288;2023-05-02T07:18:36;25.70;41.60
27072;DHT22;14613;46.308;25.288;2023-05-02T07:21:02;25.60;41.60
27072;DHT22;14613;46.308;25.288;2023-05-02T07:23:28;25.70;41.50
27072;DHT22;14613;46.308;25.288;2023-05-02T07:25:54;25.70;41.30
27072;DHT22;14613;46.308;25.288;2023-05-02T07:28:20;25.60;41.50
27072;DHT22;14613;46.308;25.288;2023-05-02T07:30:45;25.70;41.80
27072;DHT22;14613;46.308;25.288;2023-05-02T07:33:13;25.80;41.90
27072;DHT22;14613;46.308;25.288;2023-05-02T07:35:39;25.90;41.80
27072;DHT22;14613;46.308;25.288;2023-05-02T07:38:05;26.00;41.30
27072;DHT22;14613;46.308;25.288;2023-05-02T07:40:31;26.00;41.20
27072;DHT22;14613;46.308;25.288;2023-05-02T07:42:57;25.90;41.00
27072;DHT22;14613;46.308;25.288;2023-05-02T07:45:25;25.80;41.40
27072;DHT22;14613;46.308;25.288;2023-05-02T07:47:51;25.80;41.30
27072;DHT22;14613;46.308;25.288;2023-05-02T07:50:17;25.80;40.80
27072;DHT22;14613;46.308;25.288;2023-05-02T07:52:46;25.80;40.40
27072;DHT22;14613;46.308;25.288;2023-05-02T07:55:11;25.80;40.60
27072;DHT22;14613;46.308;25.288;2023-05-02T07:57:37;25.90;40.80
27072;DHT22;14613;46.308;25.288;2023-05-02T08:00:04;26.20;40.90
27072;DHT22;14613;46.308;25.288;2023-05-02T08:02:35;26.40;40.90
27072;DHT22;14613;46.308;25.288;2023-05-02T08:05:04;26.50;40.50
27072;DHT22;14613;46.308;25.288;2023-05-02T08:07:31;26.60;40.20
27072;DHT22;14613;46.308;25.288;2023-05-02T08:09:57;26.50;40.20
27072;DHT22;14613;46.308;25.288;2023-05-02T08:12:22;26.50;40.00
27072;DHT22;14613;46.308;25.288;2023-05-02T08:14:48;26.50;40.10
27072;DHT22;14613;46.308;25.288;2023-05-02T08:17:14;26.60;39.90
27072;DHT22;14613;46.308;25.288;2023-05-02T08:19:40;26.60;39.50
27072;DHT22;14613;46.308;25.288;2023-05-02T08:22:06;26.40;39.00
27072;DHT22;14613;46.308;25.288;2023-05-02T08:24:31;26.30;39.20
27072;DHT22;14613;46.308;25.288;2023-05-02T08:26:57;26.20;39.40
27072;DHT22;14613;46.308;25.288;2023-05-02T08:29:23;26.20;39.50
27072;DHT22;14613;46.308;25.288;2023-05-02T08:31:49;26.20;39.40
27072;DHT22;14613;46.308;25.288;2023-05-02T08:34:16;26.30;39.60
27072;DHT22;14613;46.308;25.288;2023-05-02T08:36:41;26.40;39.70
27072;DHT22;14613;46.308;25.288;2023-05-02T08:39:07;26.50;39.40
27072;DHT22;14613;46.308;25.288;2023-05-02T08:41:33;26.40;39.30
27072;DHT22;14613;46.308;25.288;2023-05-02T08:44:00;26.60;39.40
27072;DHT22;14613;46.308;25.288;2023-05-02T08:46:27;26.60;39.00
27072;DHT22;14613;46.308;25.288;2023-05-02T08:48:54;26.60;38.60
27072;DHT22;14613;46.308;25.288;2023-05-02T08:51:23;26.60;38.40
27072;DHT22;14613;46.308;25.288;2023-05-02T08:53:51;26.40;37.90
27072;DHT22;14613;46.308;25.288;2023-05-02T08:56:16;26.30;38.10
27072;DHT22;14613;46.308;25.288;2023-05-02T08:58:42;26.30;38.40
27072;DHT22;14613;46.308;25.288;2023-05-02T09:01:16;26.40;38.60
27072;DHT22;14613;46.308;25.288;2023-05-02T09:03:47;26.30;37.70
27072;DHT22;14613;46.308;25.288;2023-05-02T09:06:20;26.20;37.70
27072;DHT22;14613;46.308;25.288;2023-05-02T09:08:50;26.30;38.10
27072;DHT22;14613;46.308;25.288;2023-05-02T09:11:19;26.30;37.30
27072;DHT22;14613;46.308;25.288;2023-05-02T09:13:47;26.30;37.30
27072;DHT22;14613;46.308;25.288;2023-05-02T09:16:19;26.30;37.50
27072;DHT22;14613;46.308;25.288;2023-05-02T09:18:52;26.30;37.40
27072;DHT22;14613;46.308;25.288;2023-05-02T09:21:19;26.40;37.40
27072;DHT22;14613;46.308;25.288;2023-05-02T09:23:51;26.60;37.30
27072;DHT22;14613;46.308;25.288;2023-05-02T09:26:25;26.60;37.10
27072;DHT22;14613;46.308;25.288;2023-05-02T09:28:53;26.70;37.30
27072;DHT22;14613;46.308;25.288;2023-05-02T09:31:21;26.70;37.50
27072;DHT22;14613;46.308;25.288;2023-05-02T09:33:48;26.80;37.70
27072;DHT22;14613;46.308;25.288;2023-05-02T09:36:15;27.00;37.70
27072;DHT22;14613;46.308;25.288;2023-05-02T09:38:46;27.10;37.50
27072;DHT22;14613;46.308;25.288;2023-05-02T09:41:12;27.20;37.50
27072;DHT22;14613;46.308;25.288;2023-05-02T09:43:38;27.30;37.50
27072;DHT22;14613;46.308;25.288;2023-05-02T09:48:33;27.40;37.30
27072;DHT22;14613;46.308;25.288;2023-05-02T09:51:19;27.40;37.30
27072;DHT22;14613;46.308;25.288;2023-05-02T09:53:46;27.50;37.00
27072;DHT22;14613;46.308;25.288;2023-05-02T09:56:12;27.60;36.90
27072;DHT22;14613;46.308;25.288;2023-05-02T09:58:38;27.50;36.40
27072;DHT22;14613;46.308;25.288;2023-05-02T10:01:04;27.50;36.60
27072;DHT22;14613;46.308;25.288;2023-05-02T10:03:30;27.40;35.40
27072;DHT22;14613;46.308;25.288;2023-05-02T10:05:57;26.80;34.80
27072;DHT22;14613;46.308;25.288;2023-05-02T10:08:27;26.40;35.40
27072;DHT22;14613;46.308;25.288;2023-05-02T10:10:59;26.50;36.10
27072;DHT22;14613;46.308;25.288;2023-05-02T10:13:28;26.70;36.20
27072;DHT22;14613;46.308;25.288;2023-05-02T10:16:02;26.90;36.40
27072;DHT22;14613;46.308;25.288;2023-05-02T10:18:37;27.20;36.00
27072;DHT22;14613;46.308;25.288;2023-05-02T10:21:09;27.40;35.90
27072;DHT22;14613;46.308;25.288;2023-05-02T10:23:35;27.50;35.50
27072;DHT22;14613;46.308;25.288;2023-05-02T10:26:02;27.50;35.20
27072;DHT22;14613;46.308;25.288;2023-05-02T10:28:29;27.40;35.10
27072;DHT22;14613;46.308;25.288;2023-05-02T10:30:55;27.30;35.20
27072;DHT22;14613;46.308;25.288;2023-05-02T10:33:23;27.40;35.40
27072;DHT22;14613;46.308;25.288;2023-05-02T10:35:49;27.50;35.80
27072;DHT22;14613;46.308;25.288;2023-05-02T10:38:20;27.70;35.90
27072;DHT22;14613;46.308;25.288;2023-05-02T10:41:02;28.00;36.00
27072;DHT22;14613;46.308;25.288;2023-05-02T10:43:34;28.10;35.40
27072;DHT22;14613;46.308;25.288;2023-05-02T10:46:01;28.10;35.40
27072;DHT22;14613;46.308;25.288;2023-05-02T10:48:30;28.10;35.70
27072;DHT22;14613;46.308;25.288;2023-05-02T10:50:57;28.10;35.40
27072;DHT22;14613;46.308;25.288;2023-05-02T10:53:30;27.80;34.70
27072;DHT22;14613;46.308;25.288;2023-05-02T10:56:10;27.50;34.40
27072;DHT22;14613;46.308;25.288;2023-05-02T10:58:36;27.30;35.00
27072;DHT22;14613;46.308;25.288;2023-05-02T11:01:37;27.30;35.10
27072;DHT22;14613;46.308;25.288;2023-05-02T11:04:09;27.40;35.20
27072;DHT22;14613;46.308;25.288;2023-05-02T11:07:22;27.60;35.10
27072;DHT22;14613;46.308;25.288;2023-05-02T11:11:55;27.60;34.90
27072;DHT22;14613;46.308;25.288;2023-05-02T11:24:50;27.70;34.30
27072;DHT22;14613;46.308;25.288;2023-05-02T11:30:36;27.60;34.70
27072;DHT22;14613;46.308;25.288;2023-05-02T11:35:34;27.60;34.30
27072;DHT22;14613;46.308;25.288;2023-05-02T11:38:11;27.50;34.10
27072;DHT22;14613;46.308;25.288;2023-05-02T11:40:37;27.30;34.10
27072;DHT22;14613;46.308;25.288;2023-05-02T11:43:14;27.20;34.30
27072;DHT22;14613;46.308;25.288;2023-05-02T11:45:40;27.20;34.20
27072;DHT22;14613;46.308;25.288;2023-05-02T11:48:14;27.20;34.40
27072;DHT22;14613;46.308;25.288;2023-05-02T11:50:57;27.20;34.30
27072;DHT22;14613;46.308;25.288;2023-05-02T11:53:27;27.30;34.30
27072;DHT22;14613;46.308;25.288;2023-05-02T11:55:57;27.50;34.50
27072;DHT22;14613;46.308;25.288;2023-05-02T11:58:25;27.40;34.00
27072;DHT22;14613;46.308;25.288;2023-05-02T12:00:54;27.40;34.20
27072;DHT22;14613;46.308;25.288;2023-05-02T12:03:30;27.60;34.30
27072;DHT22;14613;46.308;25.288;2023-05-02T12:06:07;27.60;34.20
27072;DHT22;14613;46.308;25.288;2023-05-02T12:08:44;27.70;34.00
27072;DHT22;14613;46.308;25.288;2023-05-02T12:11:12;27.70;34.00
27072;DHT22;14613;46.308;25.288;2023-05-02T12:13:47;27.70;33.90
27072;DHT22;14613;46.308;25.288;2023-05-02T12:16:14;27.60;33.40
27072;DHT22;14613;46.308;25.288;2023-05-02T12:18:40;27.40;33.00
27072;DHT22;14613;46.308;25.288;2023-05-02T12:21:07;27.20;33.20
27072;DHT22;14613;46.308;25.288;2023-05-02T12:23:33;27.10;33.50
27072;DHT22;14613;46.308;25.288;2023-05-02T12:25:59;27.10;33.50
27072;DHT22;14613;46.308;25.288;2023-05-02T12:28:24;26.90;33.50
27072;DHT22;14613;46.308;25.288;2023-05-02T12:30:51;26.80;33.50
27072;DHT22;14613;46.308;25.288;2023-05-02T12:33:17;26.70;33.70
27072;DHT22;14613;46.308;25.288;2023-05-02T12:35:44;26.70;33.90
27072;DHT22;14613;46.308;25.288;2023-05-02T12:38:16;26.50;33.40
27072;DHT22;14613;46.308;25.288;2023-05-02T12:41:00;26.30;33.40
27072;DHT22;14613;46.308;25.288;2023-05-02T12:43:27;26.20;33.50
27072;DHT22;14613;46.308;25.288;2023-05-02T12:46:10;26.30;33.80
27072;DHT22;14613;46.308;25.288;2023-05-02T12:48:36;26.60;34.10
27072;DHT22;14613;46.308;25.288;2023-05-02T12:51:02;26.80;34.80
27072;DHT22;14613;46.308;25.288;2023-05-02T12:53:40;27.10;34.10
27072;DHT22;14613;46.308;25.288;2023-05-02T12:56:08;27.40;34.20
27072;DHT22;14613;46.308;25.288;2023-05-02T12:58:45;27.60;34.20
27072;DHT22;14613;46.308;25.288;2023-05-02T13:01:12;27.70;33.40
27072;DHT22;14613;46.308;25.288;2023-05-02T13:03:38;27.60;33.20
27072;DHT22;14613;46.308;25.288;2023-05-02T13:06:04;27.50;33.40
27072;DHT22;14613;46.308;25.288;2023-05-02T13:08:34;27.40;33.40
27072;DHT22;14613;46.308;25.288;2023-05-02T13:11:01;27.40;33.60
27072;DHT22;14613;46.308;25.288;2023-05-02T13:13:28;27.50;33.80
27072;DHT22;14613;46.308;25.288;2023-05-02T13:15:54;27.50;33.60
27072;DHT22;14613;46.308;25.288;2023-05-02T13:18:20;27.40;33.40
27072;DHT22;14613;46.308;25.288;2023-05-02T13:20:46;27.40;33.50
27072;DHT22;14613;46.308;25.288;2023-05-02T13:23:12;27.40;33.50
27072;DHT22;14613;46.308;25.288;2023-05-02T13:25:38;27.50;33.60
27072;DHT22;14613;46.308;25.288;2023-05-02T13:28:03;27.60;33.70
27072;DHT22;14613;46.308;25.288;2023-05-02T13:30:30;27.60;33.70
27072;DHT22;14613;46.308;25.288;2023-05-02T13:32:56;27.70;33.80
27072;DHT22;14613;46.308;25.288;2023-05-02T13:35:23;27.70;33.80
27072;DHT22;14613;46.308;25.288;2023-05-02T13:37:50;27.80;33.80
27072;DHT22;14613;46.308;25.288;2023-05-02T13:40:16;27.80;33.50
27072;DHT22;14613;46.308;25.288;2023-05-02T13:42:42;27.70;33.20
27072;DHT22;14613;46.308;25.288;2023-05-02T13:45:08;27.60;33.30
27072;DHT22;14613;46.308;25.288;2023-05-02T13:47:34;27.70;33.30
27072;DHT22;14613;46.308;25.288;2023-05-02T13:49:59;27.70;33.20
27072;DHT22;14613;46.308;25.288;2023-05-02T13:52:25;27.70;33.10
27072;DHT22;14613;46.308;25.288;2023-05-02T13:54:51;27.70;33.10
27072;DHT22;14613;46.308;25.288;2023-05-02T13:57:17;27.60;33.10
27072;DHT22;14613;46.308;25.288;2023-05-02T13:59:43;27.60;33.30
27072;DHT22;14613;46.308;25.288;2023-05-02T14:02:08;27.50;33.40
27072;DHT22;14613;46.308;25.288;2023-05-02T14:04:34;27.40;33.80
27072;DHT22;14613;46.308;25.288;2023-05-02T14:07:00;27.30;33.20
27072;DHT22;14613;46.308;25.288;2023-05-02T14:09:26;27.30;33.40
27072;DHT22;14613;46.308;25.288;2023-05-02T14:11:52;27.30;33.40
27072;DHT22;14613;46.308;25.288;2023-05-02T14:14:18;27.30;33.40
27072;DHT22;14613;46.308;25.288;2023-05-02T14:16:44;27.20;33.50
27072;DHT22;14613;46.308;25.288;2023-05-02T14:19:09;27.30;33.70
27072;DHT22;14613;46.308;25.288;2023-05-02T14:21:35;27.30;33.60
27072;DHT22;14613;46.308;25.288;2023-05-02T14:24:04;27.30;33.70
27072;DHT22;14613;46.308;25.288;2023-05-02T14:26:31;27.30;33.80
27072;DHT22;14613;46.308;25.288;2023-05-02T14:28:57;27.20;33.70
27072;DHT22;14613;46.308;25.288;2023-05-02T14:31:23;27.10;33.50
27072;DHT22;14613;46.308;25.288;2023-05-02T14:33:49;27.00;33.60
27072;DHT22;14613;46.308;25.288;2023-05-02T14:36:15;26.90;33.50
27072;DHT22;14613;46.308;25.288;2023-05-02T14:38:41;26.90;33.50
27072;DHT22;14613;46.308;25.288;2023-05-02T14:41:06;26.80;33.60
27072;DHT22;14613;46.308;25.288;2023-05-02T14:43:32;26.70;33.40
27072;DHT22;14613;46.308;25.288;2023-05-02T14:45:58;26.70;33.40
27072;DHT22;14613;46.308;25.288;2023-05-02T14:48:24;26.60;33.40
27072;DHT22;14613;46.308;25.288;2023-05-02T14:50:49;26.60;33.40
27072;DHT22;14613;46.308;25.288;2023-05-02T14:53:15;26.60;33.40
27072;DHT22;14613;46.308;25.288;2023-05-02T14:55:41;26.50;33.20
27072;DHT22;14613;46.308;25.288;2023-05-02T14:58:08;26.50;33.10
27072;DHT22;14613;46.308;25.288;2023-05-02T15:00:35;26.30;32.70
27072;DHT22;14613;46.308;25.288;2023-05-02T15:03:04;26.20;32.60
27072;DHT22;14613;46.308;25.288;2023-05-02T15:05:31;26.10;32.40
27072;DHT22;14613;46.308;25.288;2023-05-02T15:07:57;26.00;32.30
27072;DHT22;14613;46.308;25.288;2023-05-02T15:10:23;25.90;32.30
27072;DHT22;14613;46.308;25.288;2023-05-02T15:12:48;25.80;32.40
27072;DHT22;14613;46.308;25.288;2023-05-02T15:15:17;25.80;32.40
27072;DHT22;14613;46.308;25.288;2023-05-02T15:17:43;25.80;32.40
27072;DHT22;14613;46.308;25.288;2023-05-02T15:20:10;25.70;32.40
27072;DHT22;14613;46.308;25.288;2023-05-02T15:22:36;25.60;32.30
27072;DHT22;14613;46.308;25.288;2023-05-02T15:25:02;25.60;32.30
27072;DHT22;14613;46.308;25.288;2023-05-02T15:27:29;25.50;32.30
27072;DHT22;14613;46.308;25.288;2023-05-02T15:29:54;25.50;32.20
27072;DHT22;14613;46.308;25.288;2023-05-02T15:32:20;25.40;32.20
27072;DHT22;14613;46.308;25.288;2023-05-02T15:34:46;25.40;32.40
27072;DHT22;14613;46.308;25.288;2023-05-02T15:37:12;25.40;32.50
27072;DHT22;14613;46.308;25.288;2023-05-02T15:39:38;25.40;32.70
27072;DHT22;14613;46.308;25.288;2023-05-02T15:42:04;25.30;32.60
27072;DHT22;14613;46.308;25.288;2023-05-02T15:44:36;25.30;32.80
27072;DHT22;14613;46.308;25.288;2023-05-02T15:47:02;25.20;32.90
27072;DHT22;14613;46.308;25.288;2023-05-02T15:49:28;25.20;32.90
27072;DHT22;14613;46.308;25.288;2023-05-02T15:52:01;25.20;33.00
27072;DHT22;14613;46.308;25.288;2023-05-02T15:54:27;25.10;32.90
27072;DHT22;14613;46.308;25.288;2023-05-02T15:56:53;25.00;32.90
27072;DHT22;14613;46.308;25.288;2023-05-02T15:59:19;25.00;33.10
27072;DHT22;14613;46.308;25.288;2023-05-02T16:01:45;24.90;33.90
27072;DHT22;14613;46.308;25.288;2023-05-02T16:04:10;24.90;33.30
27072;DHT22;14613;46.308;25.288;2023-05-02T16:06:37;24.80;33.40